Terminal Aerodrome Forecast
Issued by NWS Mt. Holly, NJ

Home | Current Version | Previous Version | Text Only | Print | Product List | Glossary On
Versions: 1 2 3 4 5 6 7 8 9 10 11 12 13 14 15 16 17 18 19 20 21 22 23
131
FTUS41 KPHI 240120 AAA
TAFACY
TAF AMD
KACY 240120Z 2401/2424 07006KT P6SM -RA OVC080
      TEMPO 2402/2405 5SM -RA BR OVC040
     FM240500 VRB03KT 6SM -RA BR OVC040
      TEMPO 2405/2408 2SM -RA OVC006
     FM240900 02008KT 4SM -RA BR OVC010
     FM241000 02009KT P6SM OVC012 PROB30 2410/2412 2SM SHRA OVC008
     FM241200 01010KT P6SM OVC035
     FM241800 03012KT P6SM SCT030=

USA.gov is the U.S. government's official web portal to all federal, state and local government web resources and services.